createdAt,value
2016-10-19T00:00:22.062Z,0
2016-10-19T00:01:32.352Z,0
2016-10-19T00:02:42.665Z,0
2016-10-19T00:03:52.351Z,0
2016-10-19T00:05:02.326Z,0
2016-10-19T00:06:12.290Z,0
2016-10-19T00:07:22.291Z,0
2016-10-19T00:08:31.692Z,0
2016-10-19T00:09:41.978Z,0
2016-10-19T00:10:51.951Z,0
2016-10-19T00:12:02.236Z,0
2016-10-19T00:13:11.899Z,0
2016-10-19T00:14:21.561Z,0
2016-10-19T00:15:30.942Z,0
2016-10-19T00:16:41.258Z,0
2016-10-19T00:17:51.571Z,0
2016-10-19T00:19:01.866Z,0
2016-10-19T00:20:12.183Z,0
2016-10-19T00:21:22.457Z,0
2016-10-19T00:22:32.738Z,0
2016-10-19T00:23:43.032Z,0
2016-10-19T00:24:53.330Z,0
2016-10-19T00:26:03.330Z,0
2016-10-19T00:27:13.661Z,0
2016-10-19T00:28:23.955Z,0
2016-10-19T00:29:34.245Z,0
2016-10-19T00:30:44.213Z,0
2016-10-19T00:31:54.521Z,0
2016-10-19T00:33:04.190Z,0
2016-10-19T00:34:14.167Z,0
2016-10-19T00:35:24.134Z,0
2016-10-19T00:36:34.107Z,0
2016-10-19T00:37:44.388Z,0
2016-10-19T00:38:54.359Z,0
2016-10-19T00:40:04.344Z,0
2016-10-19T00:41:13.742Z,0
2016-10-19T00:42:23.708Z,0
2016-10-19T00:43:33.985Z,0
2016-10-19T00:44:44.277Z,0
2016-10-19T00:45:54.561Z,0
2016-10-19T00:47:04.845Z,0
2016-10-19T00:48:15.125Z,0
2016-10-19T00:49:25.402Z,0
2016-10-19T00:50:35.369Z,0
2016-10-19T00:51:45.660Z,0
2016-10-19T00:52:55.929Z,0
2016-10-19T00:54:06.213Z,0
2016-10-19T00:55:15.886Z,0
2016-10-19T00:56:25.862Z,0
2016-10-19T00:57:35.834Z,0
2016-10-19T00:58:45.812Z,0
2016-10-19T00:59:56.086Z,0
2016-10-19T01:01:06.378Z,0
2016-10-19T01:02:16.664Z,0
2016-10-19T01:03:26.656Z,0
2016-10-19T01:04:36.616Z,0
2016-10-19T01:05:46.940Z,0
2016-10-19T01:06:56.902Z,0
2016-10-19T01:08:06.917Z,0
2016-10-19T01:09:16.585Z,0
2016-10-19T01:10:26.557Z,0
2016-10-19T01:11:36.224Z,0
2016-10-19T01:12:46.511Z,0
2016-10-19T01:13:56.796Z,0
2016-10-19T01:15:06.458Z,0
2016-10-19T01:16:16.130Z,0
2016-10-19T01:17:26.096Z,0
2016-10-19T01:18:36.064Z,0
2016-10-19T01:19:46.390Z,0
2016-10-19T01:20:56.365Z,0
2016-10-19T01:22:06.036Z,0
2016-10-19T01:23:16.316Z,0
2016-10-19T01:24:26.287Z,0
2016-10-19T01:25:36.587Z,0
2016-10-19T01:26:46.880Z,0
2016-10-19T01:27:57.153Z,0
2016-10-19T01:29:07.113Z,0
2016-10-19T01:30:17.084Z,0
2016-10-19T01:31:27.364Z,0
2016-10-19T01:32:37.363Z,0
2016-10-19T01:33:47.644Z,0
2016-10-19T01:34:57.976Z,0
2016-10-19T01:36:07.634Z,0
2016-10-19T01:37:17.905Z,0
2016-10-19T01:38:27.872Z,0
2016-10-19T01:39:37.221Z,0
2016-10-19T01:40:47.546Z,0
2016-10-19T01:41:57.834Z,0
2016-10-19T01:43:08.124Z,0
2016-10-19T01:44:18.151Z,0
2016-10-19T01:45:28.117Z,0
2016-10-19T01:46:38.396Z,0
2016-10-19T01:47:48.671Z,0
2016-10-19T01:48:58.649Z,0
2016-10-19T01:50:08.930Z,0
2016-10-19T01:51:19.481Z,0
2016-10-19T01:52:29.482Z,0
2016-10-19T01:53:39.756Z,0
2016-10-19T01:54:50.027Z,0
2016-10-19T01:56:00.318Z,0
2016-10-19T01:57:10.600Z,0
2016-10-19T01:58:20.572Z,0
2016-10-19T01:59:30.847Z,0
2016-10-19T02:00:41.118Z,0
2016-10-19T02:01:51.396Z,0
2016-10-19T02:03:01.067Z,0
2016-10-19T02:04:11.381Z,0
2016-10-19T02:05:21.662Z,0
2016-10-19T02:06:31.673Z,0
2016-10-19T02:07:41.655Z,0
2016-10-19T02:08:51.312Z,0
2016-10-19T02:10:01.292Z,0
2016-10-19T02:11:11.269Z,0
2016-10-19T02:12:21.544Z,0
2016-10-19T02:13:31.823Z,0
2016-10-19T02:14:41.820Z,0
2016-10-19T02:15:52.116Z,0
2016-10-19T02:17:01.794Z,0
2016-10-19T02:18:11.786Z,0
2016-10-19T02:19:22.075Z,0
2016-10-19T02:20:32.353Z,0
2016-10-19T02:21:42.634Z,0
2016-10-19T02:22:52.301Z,0
2016-10-19T02:24:01.958Z,0
2016-10-19T02:25:11.975Z,0
2016-10-19T02:26:22.261Z,0
2016-10-19T02:27:32.578Z,0
2016-10-19T02:28:42.858Z,0
2016-10-19T02:29:52.561Z,0
2016-10-19T02:31:02.840Z,0
2016-10-19T02:32:13.121Z,0
2016-10-19T02:33:23.406Z,0
2016-10-19T02:34:33.384Z,0
2016-10-19T02:35:43.670Z,0
2016-10-19T02:36:53.979Z,0
2016-10-19T02:38:04.256Z,0
2016-10-19T02:39:14.532Z,0
2016-10-19T02:40:24.817Z,0
2016-10-19T02:41:35.137Z,0
2016-10-19T02:42:44.806Z,0
2016-10-19T02:43:54.799Z,0
2016-10-19T02:45:05.090Z,0
2016-10-19T02:46:15.372Z,0
2016-10-19T02:47:25.337Z,0
2016-10-19T02:48:35.626Z,0
2016-10-19T02:49:45.904Z,0
2016-10-19T02:50:55.914Z,0
2016-10-19T02:52:06.197Z,0
2016-10-19T02:53:16.482Z,0
2016-10-19T02:54:26.778Z,0
2016-10-19T02:55:36.756Z,0
2016-10-19T02:56:47.035Z,0
2016-10-19T02:57:57.319Z,0
2016-10-19T02:59:07.601Z,0
2016-10-19T03:00:17.893Z,0
2016-10-19T03:01:28.180Z,0
2016-10-19T03:33:11.099Z,0
2016-10-19T03:34:21.061Z,0
2016-10-19T03:35:31.027Z,0
2016-10-19T03:36:40.990Z,0
2016-10-19T03:37:50.976Z,0
2016-10-19T03:39:01.258Z,0
2016-10-19T03:40:11.544Z,0
2016-10-19T03:41:21.820Z,0
2016-10-19T03:42:32.094Z,0
2016-10-19T03:43:41.751Z,0
2016-10-19T03:44:51.724Z,0
2016-10-19T03:46:02.022Z,0
2016-10-19T03:47:12.309Z,0
2016-10-19T03:48:22.321Z,0
2016-10-19T03:49:31.979Z,0
2016-10-19T03:50:41.976Z,0
2016-10-19T03:51:51.967Z,0
2016-10-19T03:53:01.332Z,0
2016-10-19T03:54:11.002Z,0
2016-10-19T03:55:20.972Z,0
2016-10-19T03:56:30.980Z,0
2016-10-19T03:57:41.267Z,0
2016-10-19T03:58:51.258Z,0
2016-10-19T04:00:01.219Z,0
2016-10-19T04:01:10.892Z,0
2016-10-19T04:02:20.862Z,0
2016-10-19T04:03:31.134Z,0
2016-10-19T04:04:41.425Z,0
2016-10-19T04:05:51.404Z,0
2016-10-19T04:07:01.375Z,0
2016-10-19T04:08:11.637Z,0
2016-10-19T04:09:21.608Z,0
2016-10-19T04:10:31.315Z,0
2016-10-19T04:11:41.606Z,0
2016-10-19T04:12:51.582Z,0
2016-10-19T04:14:01.862Z,0
2016-10-19T04:15:12.176Z,0
2016-10-19T04:16:22.478Z,0
2016-10-19T04:17:32.753Z,0
2016-10-19T04:18:42.737Z,0
2016-10-19T04:19:52.719Z,0
2016-10-19T04:21:02.711Z,0
2016-10-19T04:22:12.987Z,0
2016-10-19T04:23:22.969Z,0
2016-10-19T04:24:33.255Z,0
2016-10-19T04:25:43.547Z,0
2016-10-19T04:26:53.519Z,0
2016-10-19T04:28:03.798Z,0
2016-10-19T04:29:14.127Z,0
2016-10-19T04:30:24.410Z,0
2016-10-19T04:31:34.696Z,0
2016-10-19T04:32:44.670Z,0
2016-10-19T04:33:54.945Z,0
2016-10-19T04:35:05.222Z,0
2016-10-19T04:36:15.524Z,0
2016-10-19T04:37:25.819Z,0
2016-10-19T04:38:36.091Z,0
2016-10-19T04:39:46.369Z,0
2016-10-19T04:40:56.343Z,0
2016-10-19T04:42:06.303Z,0
2016-10-19T04:43:16.274Z,0
2016-10-19T04:44:26.574Z,0
2016-10-19T04:45:36.547Z,0
2016-10-19T04:46:46.515Z,0
2016-10-19T04:47:56.179Z,0
2016-10-19T04:49:06.162Z,0
2016-10-19T04:50:16.129Z,0
2016-10-19T04:51:26.416Z,0
2016-10-19T04:52:36.707Z,0
2016-10-19T04:53:46.997Z,0
2016-10-19T04:54:56.977Z,0
2016-10-19T04:56:06.644Z,4
2016-10-19T04:57:16.620Z,4
2016-10-19T04:58:25.980Z,4
2016-10-19T04:59:35.982Z,4
2016-10-19T05:00:45.954Z,0
2016-10-19T05:01:55.922Z,4
2016-10-19T05:03:06.252Z,4
2016-10-19T05:04:16.263Z,4
2016-10-19T05:05:26.601Z,4
2016-10-19T05:06:36.588Z,4
2016-10-19T05:07:46.545Z,4
2016-10-19T05:08:56.840Z,8
2016-10-19T05:10:06.507Z,8
2016-10-19T05:11:16.529Z,12
2016-10-19T05:12:26.816Z,12
2016-10-19T05:13:37.101Z,12
2016-10-19T05:14:47.074Z,20
2016-10-19T05:15:57.060Z,24
2016-10-19T05:17:07.328Z,32
2016-10-19T05:18:17.340Z,44
2016-10-19T05:19:27.625Z,52
2016-10-19T05:20:37.918Z,64
2016-10-19T05:21:47.890Z,72
2016-10-19T05:22:58.183Z,80
2016-10-19T05:24:08.467Z,80
2016-10-19T05:25:18.744Z,84
2016-10-19T05:26:29.023Z,84
2016-10-19T05:27:39.012Z,104
2016-10-19T05:28:48.671Z,120
2016-10-19T05:29:58.947Z,132
2016-10-19T05:31:09.236Z,148
2016-10-19T05:32:19.531Z,160
2016-10-19T05:33:29.831Z,160
2016-10-19T05:34:39.832Z,188
2016-10-19T05:35:49.809Z,200
2016-10-19T05:37:00.087Z,212
2016-10-19T05:38:10.374Z,228
2016-10-19T05:39:20.665Z,240
2016-10-19T05:40:30.953Z,248
2016-10-19T05:41:40.954Z,280
2016-10-19T05:42:51.255Z,304
2016-10-19T05:44:01.556Z,308
2016-10-19T05:45:11.233Z,344
2016-10-19T05:46:21.524Z,384
2016-10-19T05:47:31.834Z,392
2016-10-19T05:48:41.504Z,416
2016-10-19T05:49:51.480Z,468
2016-10-19T05:51:01.487Z,516
2016-10-19T05:52:11.159Z,496
2016-10-19T05:53:21.460Z,552
2016-10-19T05:54:31.427Z,564
2016-10-19T05:55:41.713Z,600
2016-10-19T05:56:52.032Z,624
2016-10-19T05:58:02.037Z,636
2016-10-19T05:59:12.048Z,624
2016-10-19T06:00:21.712Z,684
2016-10-19T06:01:32.027Z,720
2016-10-19T06:02:42.308Z,740
2016-10-19T06:03:52.579Z,792
2016-10-19T06:05:02.548Z,856
2016-10-19T06:06:12.830Z,932
2016-10-19T06:07:23.116Z,968
2016-10-19T06:08:33.143Z,1000
2016-10-19T06:09:43.123Z,984
2016-10-19T06:10:53.445Z,1064
2016-10-19T06:12:03.731Z,1148
2016-10-19T06:13:13.699Z,1232
2016-10-19T06:14:23.370Z,1268
2016-10-19T06:15:33.644Z,1284
2016-10-19T06:16:43.324Z,1272
2016-10-19T06:17:53.300Z,1280
2016-10-19T06:19:02.969Z,1320
2016-10-19T06:20:13.269Z,1332
2016-10-19T06:21:23.261Z,1356
2016-10-19T06:22:33.547Z,1368
2016-10-19T06:23:43.839Z,1380
2016-10-19T06:24:53.816Z,1432
2016-10-19T06:26:03.168Z,1492
2016-10-19T06:27:12.879Z,1532
2016-10-19T06:28:23.157Z,1636
2016-10-19T06:29:33.124Z,1720
2016-10-19T06:30:43.094Z,1816
2016-10-19T06:31:53.086Z,1896
2016-10-19T06:33:03.382Z,1988
2016-10-19T06:34:13.355Z,2096
2016-10-19T06:35:23.327Z,2212
2016-10-19T06:36:33.303Z,2240
2016-10-19T06:37:43.275Z,2280
2016-10-19T06:38:53.255Z,2312
2016-10-19T06:40:03.553Z,2364
2016-10-19T06:41:13.525Z,2420
2016-10-19T06:42:22.881Z,2492
2016-10-19T06:43:32.859Z,2508
2016-10-19T06:44:43.155Z,2492
2016-10-19T06:45:53.171Z,2492
2016-10-19T06:47:03.183Z,2508
2016-10-19T06:48:13.154Z,2488
2016-10-19T06:49:23.451Z,2464
2016-10-19T06:50:33.425Z,2380
2016-10-19T06:51:43.098Z,2380
2016-10-19T06:52:53.383Z,2424
2016-10-19T06:54:03.361Z,2556
2016-10-19T06:55:13.634Z,2560
2016-10-19T06:56:23.625Z,2576
2016-10-19T06:57:33.908Z,2604
2016-10-19T06:58:43.879Z,2692
2016-10-19T06:59:54.152Z,2740
2016-10-19T07:01:04.470Z,2708
2016-10-19T07:02:14.139Z,2732
2016-10-19T07:03:24.111Z,2796
2016-10-19T07:04:34.437Z,2860
2016-10-19T07:05:44.409Z,2944
2016-10-19T07:06:54.695Z,3116
2016-10-19T07:08:04.995Z,3120
2016-10-19T07:09:14.992Z,3212
2016-10-19T07:10:24.972Z,3260
2016-10-19T07:11:34.962Z,3356
2016-10-19T07:12:45.245Z,3376
2016-10-19T07:13:55.226Z,3524
2016-10-19T07:15:05.208Z,3696
2016-10-19T07:16:15.486Z,3700
2016-10-19T07:17:25.771Z,3704
2016-10-19T07:18:36.056Z,3960
2016-10-19T07:19:46.348Z,3984
2016-10-19T07:20:56.633Z,3960
2016-10-19T07:22:06.924Z,3992
2016-10-19T07:23:17.220Z,4000
2016-10-19T07:24:27.211Z,4040
2016-10-19T07:25:36.877Z,4020
2016-10-19T07:26:47.169Z,4016
2016-10-19T07:27:57.136Z,3980
2016-10-19T07:29:06.800Z,4040
2016-10-19T07:30:16.766Z,4188
2016-10-19T07:31:27.056Z,4320
2016-10-19T07:32:37.338Z,4404
2016-10-19T07:33:47.314Z,4356
2016-10-19T07:34:56.985Z,4368
2016-10-19T07:36:06.985Z,4408
2016-10-19T07:37:17.260Z,4392
2016-10-19T07:38:26.941Z,4364
2016-10-19T07:39:37.213Z,4380
2016-10-19T07:40:47.189Z,4412
2016-10-19T07:41:56.876Z,4472
2016-10-19T07:43:07.198Z,4640
2016-10-19T07:44:17.220Z,4824
2016-10-19T07:45:27.210Z,4868
2016-10-19T07:46:37.492Z,4792
2016-10-19T07:47:47.154Z,4716
2016-10-19T07:48:57.193Z,4476
2016-10-19T07:50:07.402Z,4188
2016-10-19T07:51:17.690Z,4108
2016-10-19T07:52:27.981Z,3844
2016-10-19T07:53:37.998Z,3536
2016-10-19T07:54:47.673Z,3484
2016-10-19T07:55:57.956Z,3364
2016-10-19T07:57:08.242Z,3308
2016-10-19T07:58:18.511Z,3196
2016-10-19T07:59:28.507Z,2984
2016-10-19T08:00:38.818Z,3148
2016-10-19T08:01:48.805Z,3396
2016-10-19T08:02:58.801Z,3524
2016-10-19T08:04:09.079Z,3952
2016-10-19T08:05:19.381Z,4348
2016-10-19T08:06:29.383Z,4212
2016-10-19T08:07:39.667Z,4136
2016-10-19T08:08:49.656Z,4168
2016-10-19T08:09:59.650Z,4116
2016-10-19T08:11:09.922Z,4092
2016-10-19T08:12:19.588Z,4148
2016-10-19T08:13:29.275Z,4416
2016-10-19T08:14:38.971Z,4508
2016-10-19T08:15:49.269Z,4524
2016-10-19T08:16:59.261Z,4636
2016-10-19T08:18:09.271Z,4684
2016-10-19T08:19:19.562Z,4616
2016-10-19T08:20:29.257Z,4576
2016-10-19T08:21:46.014Z,4720
2016-10-19T08:23:04.126Z,4816
2016-10-19T08:24:25.230Z,4920
2016-10-19T08:25:44.487Z,5012
2016-10-19T08:27:01.388Z,5016
2016-10-19T08:28:14.441Z,4952
2016-10-19T08:29:24.798Z,4964
2016-10-19T08:30:40.041Z,5048
2016-10-19T08:31:51.745Z,5084
2016-10-19T08:33:02.137Z,5196
2016-10-19T08:34:11.928Z,5312
2016-10-19T08:35:22.292Z,5304
2016-10-19T08:36:32.674Z,5376
2016-10-19T08:37:43.007Z,5380
2016-10-19T08:38:53.036Z,5184
2016-10-19T08:40:04.004Z,5120
2016-10-19T08:41:14.588Z,5212
2016-10-19T08:42:24.302Z,5424
2016-10-19T08:43:33.725Z,5664
2016-10-19T08:44:44.051Z,5852
2016-10-19T08:45:54.396Z,6024
2016-10-19T08:47:04.424Z,5976
2016-10-19T08:48:14.760Z,5988
2016-10-19T08:49:24.772Z,5868
2016-10-19T08:50:35.109Z,5804
2016-10-19T08:51:45.151Z,5784
2016-10-19T08:52:55.185Z,5684
2016-10-19T08:54:05.212Z,5620
2016-10-19T08:55:14.962Z,5464
2016-10-19T08:56:25.302Z,5264
2016-10-19T08:57:35.671Z,5060
2016-10-19T08:58:45.995Z,5008
2016-10-19T08:59:55.996Z,4848
2016-10-19T09:01:06.033Z,4628
2016-10-19T09:02:16.415Z,4420
2016-10-19T09:03:26.759Z,4344
2016-10-19T09:04:37.101Z,4204
2016-10-19T09:05:47.152Z,4024
2016-10-19T09:06:56.866Z,3972
2016-10-19T09:08:06.881Z,4004
2016-10-19T09:09:17.237Z,4112
2016-10-19T09:10:27.506Z,4192
2016-10-19T09:11:37.520Z,4240
2016-10-19T09:12:48.136Z,4248
2016-10-19T09:13:58.132Z,4192
2016-10-19T09:15:08.470Z,4140
2016-10-19T09:16:18.192Z,4140
2016-10-19T09:17:28.677Z,4196
2016-10-19T09:18:38.711Z,4324
2016-10-19T09:19:49.115Z,4436
2016-10-19T09:20:59.506Z,4552
2016-10-19T09:22:09.502Z,4688
2016-10-19T09:23:19.530Z,4824
2016-10-19T09:24:29.856Z,4920
2016-10-19T09:25:39.582Z,4952
2016-10-19T09:26:49.593Z,4992
2016-10-19T09:27:59.916Z,5080
2016-10-19T09:29:09.994Z,5184
2016-10-19T09:30:19.389Z,5280
2016-10-19T09:31:29.756Z,5360
2016-10-19T09:32:40.099Z,5388
2016-10-19T09:33:49.820Z,5456
2016-10-19T09:34:59.835Z,5528
2016-10-19T09:36:10.177Z,5588
2016-10-19T09:37:20.503Z,5700
2016-10-19T09:38:30.843Z,5796
2016-10-19T09:39:41.170Z,5832
2016-10-19T09:40:51.460Z,5780
2016-10-19T09:42:01.778Z,5828
2016-10-19T09:43:12.077Z,5768
2016-10-19T09:44:21.767Z,5552
2016-10-19T09:45:31.457Z,5360
2016-10-19T09:46:41.759Z,4968
2016-10-19T09:47:51.760Z,4700
2016-10-19T09:49:02.053Z,4784
2016-10-19T09:50:12.041Z,5132
2016-10-19T09:51:22.052Z,5524
2016-10-19T09:52:32.081Z,5684
2016-10-19T09:53:42.393Z,5596
2016-10-19T09:54:52.717Z,5420
2016-10-19T09:56:02.727Z,5316
2016-10-19T09:57:13.042Z,5148
2016-10-19T09:58:23.080Z,5284
2016-10-19T09:59:33.078Z,5488
2016-10-19T10:00:43.515Z,5572
2016-10-19T10:01:53.943Z,5456
2016-10-19T10:03:04.251Z,5296
2016-10-19T10:04:14.252Z,5272
2016-10-19T10:05:24.257Z,5148
2016-10-19T10:06:33.990Z,4908
2016-10-19T10:07:44.345Z,4816
2016-10-19T10:08:54.347Z,4848
2016-10-19T10:10:04.665Z,4992
2016-10-19T10:11:14.688Z,5088
2016-10-19T10:12:24.689Z,5064
2016-10-19T10:13:35.017Z,4984
2016-10-19T10:14:45.018Z,4876
2016-10-19T10:15:55.004Z,4776
2016-10-19T10:17:05.001Z,4664
2016-10-19T10:18:14.672Z,4544
2016-10-19T10:19:24.974Z,4576
2016-10-19T10:20:34.818Z,4504
2016-10-19T10:21:45.039Z,4452
2016-10-19T10:22:55.364Z,4472
2016-10-19T10:24:05.685Z,4468
2016-10-19T10:25:16.010Z,4376
2016-10-19T10:26:26.062Z,4296
2016-10-19T10:27:36.353Z,4244
2016-10-19T10:28:46.664Z,4252
2016-10-19T10:29:56.985Z,4272
2016-10-19T10:31:06.972Z,4368
2016-10-19T10:32:17.000Z,4504
2016-10-19T10:33:27.581Z,4640
2016-10-19T10:34:37.870Z,4792
2016-10-19T10:35:48.189Z,4904
2016-10-19T10:36:57.885Z,4936
2016-10-19T10:38:07.272Z,4964
2016-10-19T10:39:17.299Z,5000
2016-10-19T10:40:27.349Z,4928
2016-10-19T10:41:37.896Z,4812
2016-10-19T10:42:48.210Z,4804
2016-10-19T10:43:57.907Z,4888
2016-10-19T10:45:08.212Z,4980
2016-10-19T10:46:18.210Z,5016
2016-10-19T10:47:27.904Z,5028
2016-10-19T10:48:38.204Z,4948
2016-10-19T10:49:48.205Z,4980
2016-10-19T10:50:58.540Z,5048
2016-10-19T10:52:08.239Z,5104
2016-10-19T10:53:17.619Z,5192
2016-10-19T10:54:27.303Z,5272
2016-10-19T10:55:37.312Z,5352
2016-10-19T10:56:47.339Z,5392
2016-10-19T10:57:57.011Z,5432
2016-10-19T10:59:07.319Z,5432
2016-10-19T11:00:17.633Z,5292
2016-10-19T11:01:27.935Z,5060
2016-10-19T11:02:38.281Z,4788
2016-10-19T11:03:48.279Z,4616
2016-10-19T11:04:58.289Z,4464
2016-10-19T11:06:08.279Z,4244
2016-10-19T11:07:18.629Z,3916
2016-10-19T11:08:28.638Z,3504
2016-10-19T11:09:38.642Z,3056
2016-10-19T11:10:48.359Z,2680
2016-10-19T11:11:58.391Z,2308
2016-10-19T11:13:08.407Z,2060
2016-10-19T11:14:18.694Z,1872
2016-10-19T11:15:28.692Z,1804
2016-10-19T11:16:39.000Z,1808
2016-10-19T11:17:49.361Z,1832
2016-10-19T11:18:59.672Z,1920
2016-10-19T11:20:10.017Z,1964
2016-10-19T11:21:20.038Z,2008
2016-10-19T11:22:30.044Z,1940
2016-10-19T11:23:40.055Z,1940
2016-10-19T11:24:50.376Z,2360
2016-10-19T11:26:00.676Z,2656
2016-10-19T11:27:10.674Z,2844
2016-10-19T11:28:20.982Z,3080
2016-10-19T11:29:31.302Z,3256
2016-10-19T11:30:41.614Z,3456
2016-10-19T11:31:51.911Z,3600
2016-10-19T11:33:02.235Z,3668
2016-10-19T11:34:12.574Z,3636
2016-10-19T11:35:22.856Z,3580
2016-10-19T11:36:33.169Z,3516
2016-10-19T11:37:43.474Z,3488
2016-10-19T11:38:53.474Z,3504
2016-10-19T11:40:02.882Z,3532
2016-10-19T11:41:13.186Z,3560
2016-10-19T11:42:23.489Z,3556
2016-10-19T11:43:33.793Z,3512
2016-10-19T11:44:43.804Z,3408
2016-10-19T11:45:53.811Z,3292
2016-10-19T11:47:03.515Z,3160
2016-10-19T11:48:13.820Z,3052
2016-10-19T11:49:23.816Z,2972
2016-10-19T11:50:33.840Z,2888
2016-10-19T11:51:44.171Z,2828
2016-10-19T11:52:54.456Z,2804
2016-10-19T11:54:04.510Z,2840
2016-10-19T11:55:14.823Z,2960
2016-10-19T11:56:24.827Z,3132
2016-10-19T11:57:35.186Z,3292
2016-10-19T11:58:45.547Z,3360
2016-10-19T11:59:55.576Z,3364
2016-10-19T12:01:05.919Z,3328
2016-10-19T12:02:16.262Z,3280
2016-10-19T12:03:26.043Z,3156
2016-10-19T12:04:36.047Z,2972
2016-10-19T12:05:46.426Z,2756
2016-10-19T12:06:56.466Z,2532
2016-10-19T12:08:06.185Z,2356
2016-10-19T12:09:16.243Z,2248
2016-10-19T12:10:26.588Z,2208
2016-10-19T12:11:36.314Z,2200
2016-10-19T12:12:46.350Z,2236
2016-10-19T12:13:56.780Z,2332
2016-10-19T12:15:06.519Z,2460
2016-10-19T12:16:16.555Z,2600
2016-10-19T12:17:27.166Z,2688
2016-10-19T12:18:37.563Z,2712
2016-10-19T12:19:47.916Z,2724
2016-10-19T12:20:58.271Z,2800
2016-10-19T12:22:08.311Z,2916
2016-10-19T12:23:18.315Z,3020
2016-10-19T12:24:28.094Z,3096
2016-10-19T12:25:38.424Z,3192
2016-10-19T12:26:48.471Z,3284
2016-10-19T12:27:58.831Z,3344
2016-10-19T12:29:08.896Z,3384
2016-10-19T12:30:18.887Z,3432
2016-10-19T12:31:29.218Z,3452
2016-10-19T12:32:38.997Z,3444
2016-10-19T12:33:48.998Z,3420
2016-10-19T12:34:59.317Z,3396
2016-10-19T12:36:09.351Z,3400
2016-10-19T12:37:19.038Z,3408
2016-10-19T12:38:28.735Z,3392
2016-10-19T12:39:38.735Z,3376
2016-10-19T12:40:48.472Z,3364
2016-10-19T12:41:58.769Z,3348
2016-10-19T12:43:08.763Z,3308
2016-10-19T12:44:18.750Z,3248
2016-10-19T12:45:28.777Z,3204
2016-10-19T12:46:39.117Z,3180
2016-10-19T12:47:48.786Z,3164
2016-10-19T12:48:59.102Z,3172
2016-10-19T12:50:09.416Z,3132
2016-10-19T12:51:19.943Z,3048
2016-10-19T12:52:30.319Z,2932
2016-10-19T12:53:40.022Z,2852
2016-10-19T12:54:50.330Z,2904
2016-10-19T12:56:00.633Z,3020
2016-10-19T12:57:10.931Z,2924
2016-10-19T12:58:20.315Z,2760
2016-10-19T12:59:30.614Z,2556
2016-10-19T13:00:40.615Z,2464
2016-10-19T13:01:50.924Z,2464
2016-10-19T13:03:00.935Z,2544
2016-10-19T13:04:10.944Z,2616
2016-10-19T13:05:21.271Z,2760
2016-10-19T13:06:31.268Z,2792
2016-10-19T13:07:41.561Z,2756
2016-10-19T13:08:51.894Z,2672
2016-10-19T13:10:01.558Z,2520
2016-10-19T13:11:11.867Z,2368
2016-10-19T13:12:22.158Z,2292
2016-10-19T13:13:32.153Z,2252
2016-10-19T13:14:41.873Z,2268
2016-10-19T13:15:52.180Z,2164
2016-10-19T13:17:02.504Z,2044
2016-10-19T13:18:12.515Z,1916
2016-10-19T13:19:22.565Z,1692
2016-10-19T13:20:32.578Z,1444
2016-10-19T13:21:42.892Z,1412
2016-10-19T13:22:52.916Z,1432
2016-10-19T13:24:03.233Z,1416
2016-10-19T13:25:13.247Z,1340
2016-10-19T13:26:22.933Z,1328
2016-10-19T13:27:33.244Z,1404
2016-10-19T13:28:43.244Z,1488
2016-10-19T13:29:53.242Z,1404
2016-10-19T13:31:02.971Z,1392
2016-10-19T13:32:13.006Z,1444
2016-10-19T13:33:23.050Z,1572
2016-10-19T13:34:33.054Z,1676
2016-10-19T13:35:43.044Z,1772
2016-10-19T13:36:52.759Z,1864
2016-10-19T13:38:03.121Z,1912
2016-10-19T13:39:13.127Z,1864
2016-10-19T13:40:23.121Z,1824
2016-10-19T13:41:33.147Z,1836
2016-10-19T13:42:43.455Z,1824
2016-10-19T13:43:53.790Z,1832
2016-10-19T13:45:03.780Z,1896
2016-10-19T13:46:14.010Z,1912
2016-10-19T13:47:23.714Z,1940
2016-10-19T13:48:33.718Z,1880
2016-10-19T13:49:44.040Z,1856
2016-10-19T13:50:54.066Z,1892
2016-10-19T13:52:04.064Z,1884
2016-10-19T13:53:14.063Z,1784
2016-10-19T13:54:24.113Z,1696
2016-10-19T13:55:34.111Z,1612
2016-10-19T13:56:44.133Z,1608
2016-10-19T13:57:54.438Z,1572
2016-10-19T13:59:03.840Z,1552
2016-10-19T14:00:14.172Z,1504
2016-10-19T14:01:24.163Z,1472
2016-10-19T14:02:34.191Z,1408
2016-10-19T14:03:44.501Z,1352
2016-10-19T14:04:54.567Z,1348
2016-10-19T14:06:04.877Z,1404
2016-10-19T14:07:15.185Z,1424
2016-10-19T14:08:25.490Z,1468
2016-10-19T14:09:35.813Z,1516
2016-10-19T14:10:46.062Z,1528
2016-10-19T14:11:56.371Z,1500
2016-10-19T14:13:06.371Z,1464
2016-10-19T14:14:16.684Z,1424
2016-10-19T14:15:26.991Z,1412
2016-10-19T14:16:37.284Z,1408
2016-10-19T14:17:47.591Z,1364
2016-10-19T14:18:57.917Z,1324
2016-10-19T14:20:08.219Z,1292
2016-10-19T14:21:18.241Z,1244
2016-10-19T14:22:28.559Z,1192
2016-10-19T14:23:38.548Z,1152
2016-10-19T14:24:48.869Z,1140
2016-10-19T14:25:59.166Z,1084
2016-10-19T14:27:08.861Z,1048
2016-10-19T14:28:19.189Z,1032
2016-10-19T14:29:28.578Z,996
2016-10-19T14:30:38.912Z,964
2016-10-19T14:31:49.239Z,968
2016-10-19T14:32:59.887Z,992
2016-10-19T14:34:10.208Z,976
2016-10-19T14:35:20.228Z,996
2016-10-19T14:36:30.624Z,1000
2016-10-19T14:37:40.685Z,980
2016-10-19T14:38:50.698Z,936
2016-10-19T14:40:01.050Z,912
2016-10-19T14:41:11.101Z,928
2016-10-19T14:42:21.447Z,956
2016-10-19T14:43:32.016Z,980
2016-10-19T14:44:42.348Z,996
2016-10-19T14:45:52.053Z,1000
2016-10-19T14:47:02.078Z,984
2016-10-19T14:48:11.986Z,944
2016-10-19T14:49:22.297Z,884
2016-10-19T14:50:32.300Z,824
2016-10-19T14:51:42.010Z,760
2016-10-19T14:52:52.318Z,696
2016-10-19T14:54:01.708Z,644
2016-10-19T14:55:12.017Z,596
2016-10-19T14:56:22.015Z,560
2016-10-19T14:57:32.347Z,532
2016-10-19T14:58:42.033Z,492
2016-10-19T14:59:52.056Z,456
2016-10-19T15:01:02.414Z,436
2016-10-19T15:02:12.779Z,424
2016-10-19T15:03:22.802Z,412
2016-10-19T15:04:33.135Z,404
2016-10-19T15:05:43.478Z,396
2016-10-19T15:06:53.158Z,384
2016-10-19T15:08:03.489Z,364
2016-10-19T15:09:13.479Z,352
2016-10-19T15:10:23.789Z,328
2016-10-19T15:11:34.139Z,304
2016-10-19T15:12:43.833Z,280
2016-10-19T15:13:54.165Z,256
2016-10-19T15:15:03.861Z,240
2016-10-19T15:16:13.542Z,232
2016-10-19T15:17:23.523Z,228
2016-10-19T15:18:33.885Z,224
2016-10-19T15:19:43.915Z,212
2016-10-19T15:20:54.255Z,200
2016-10-19T15:22:04.296Z,192
2016-10-19T15:23:14.651Z,176
2016-10-19T15:24:24.979Z,156
2016-10-19T15:25:34.993Z,136
2016-10-19T15:26:44.988Z,120
2016-10-19T15:27:55.271Z,108
2016-10-19T15:29:05.589Z,96
2016-10-19T15:30:15.891Z,80
2016-10-19T15:31:25.893Z,68
2016-10-19T15:32:35.888Z,60
2016-10-19T15:33:45.271Z,48
2016-10-19T15:34:54.991Z,44
2016-10-19T15:36:04.998Z,40
2016-10-19T15:37:14.982Z,36
2016-10-19T15:38:25.306Z,36
2016-10-19T15:39:35.620Z,40
2016-10-19T15:40:45.592Z,36
2016-10-19T15:41:55.595Z,36
2016-10-19T15:43:05.893Z,36
2016-10-19T15:44:16.194Z,32
2016-10-19T15:45:26.192Z,28
2016-10-19T15:46:36.195Z,24
2016-10-19T15:47:45.915Z,24
2016-10-19T15:48:55.578Z,24
2016-10-19T15:50:05.914Z,20
2016-10-19T15:51:16.207Z,20
2016-10-19T15:52:26.509Z,20
2016-10-19T15:53:36.813Z,20
2016-10-19T15:54:47.122Z,20
2016-10-19T15:55:57.427Z,20
2016-10-19T15:57:07.432Z,16
2016-10-19T15:58:17.435Z,16
2016-10-19T15:59:27.106Z,16
2016-10-19T16:00:37.404Z,12
2016-10-19T16:01:47.685Z,12
2016-10-19T16:02:57.358Z,8
2016-10-19T16:04:07.337Z,8
2016-10-19T16:05:17.643Z,4
2016-10-19T16:06:27.666Z,8
2016-10-19T16:07:37.658Z,4
2016-10-19T16:08:47.934Z,4
2016-10-19T16:09:57.615Z,4
2016-10-19T16:11:06.973Z,4
2016-10-19T16:12:16.945Z,4
2016-10-19T16:13:26.941Z,0
2016-10-19T16:14:37.239Z,4
2016-10-19T16:15:46.910Z,4
2016-10-19T16:16:56.280Z,0
2016-10-19T16:18:06.276Z,0
2016-10-19T16:19:16.592Z,0
2016-10-19T16:20:26.878Z,0
2016-10-19T16:21:37.195Z,0
2016-10-19T16:22:47.475Z,0
2016-10-19T16:23:57.766Z,0
2016-10-19T16:25:07.757Z,0
2016-10-19T16:26:17.746Z,0
2016-10-19T16:27:27.736Z,0
2016-10-19T16:28:37.726Z,0
2016-10-19T16:29:48.031Z,0
2016-10-19T16:30:58.323Z,0
2016-10-19T16:32:08.628Z,0
2016-10-19T16:33:18.921Z,0
2016-10-19T16:34:28.608Z,0
2016-10-19T16:35:38.592Z,0
2016-10-19T16:36:48.873Z,0
2016-10-19T16:37:59.180Z,0
2016-10-19T16:39:09.473Z,0
2016-10-19T16:40:19.799Z,0
2016-10-19T16:41:30.144Z,0
2016-10-19T16:42:40.117Z,0